Time;durP1;ratioP1;P1;durP2;ratioP2;P2;SDS_P1;SDS_P2;PMS_P1;PMS_P2;Temp;Humidity;BMP_temperature;BMP_pressure;BME280_temperature;BME280_humidity;BME280_pressure;Samples;Min_cycle;Max_cycle;Signal;HPM_P1;HPM_P2
2021/09/03 00:01:30;;;;;;;0.00;0.00;;;13.70;68.70;;;;;;5034417;28;20030;-72
2021/09/03 00:03:55;;;;;;;0.00;0.00;;;13.70;68.10;;;;;;5034048;28;20040;-73
2021/09/03 00:06:22;;;;;;;0.00;0.00;;;13.60;68.00;;;;;;5034164;28;20080;-72
2021/09/03 00:08:47;;;;;;;0.00;0.00;;;13.50;68.30;;;;;;5033570;28;20040;-72
2021/09/03 00:11:13;;;;;;;0.00;0.00;;;13.30;68.50;;;;;;5034287;28;20465;-72
2021/09/03 00:13:39;;;;;;;0.00;0.00;;;13.20;68.90;;;;;;5034222;28;20112;-71
2021/09/03 00:16:05;;;;;;;0.00;0.00;;;13.00;69.30;;;;;;5034183;28;20478;-73
2021/09/03 00:18:31;;;;;;;0.00;0.00;;;13.00;69.70;;;;;;5034108;28;20373;-73
2021/09/03 00:20:56;;;;;;;0.00;0.00;;;12.90;69.90;;;;;;5034103;28;20079;-73
2021/09/03 00:23:22;;;;;;;0.00;0.00;;;12.90;70.00;;;;;;5033932;28;20036;-73
2021/09/03 00:25:48;;;;;;;0.00;0.00;;;12.90;70.10;;;;;;5034041;28;20025;-72
2021/09/03 00:28:13;;;;;;;0.00;0.00;;;12.90;70.10;;;;;;5034008;28;20030;-73
2021/09/03 00:30:39;;;;;;;0.00;0.00;;;12.90;70.80;;;;;;5033935;28;20051;-72
2021/09/03 00:33:05;;;;;;;0.00;0.00;;;12.80;70.10;;;;;;5034330;28;20033;-73
2021/09/03 00:35:31;;;;;;;0.00;0.00;;;12.80;70.20;;;;;;5033588;28;20508;-73
2021/09/03 00:37:56;;;;;;;0.00;0.00;;;12.80;70.30;;;;;;5034096;28;20057;-73
2021/09/03 00:40:22;;;;;;;0.00;0.00;;;12.80;70.30;;;;;;5033655;28;20088;-73
2021/09/03 00:42:48;;;;;;;0.00;0.00;;;12.70;70.40;;;;;;5031978;28;20112;-72
2021/09/03 00:45:14;;;;;;;0.00;0.00;;;12.60;70.50;;;;;;5032241;28;20084;-72
2021/09/03 00:47:39;;;;;;;0.00;0.00;;;12.50;70.70;;;;;;5033549;28;20071;-76
2021/09/03 00:50:06;;;;;;;0.00;0.00;;;12.50;70.90;;;;;;5034003;28;20026;-71
2021/09/03 00:52:32;;;;;;;0.00;0.00;;;12.40;71.00;;;;;;5033820;28;20107;-72
2021/09/03 00:54:58;;;;;;;0.00;0.00;;;12.40;71.10;;;;;;5033336;28;20029;-72
2021/09/03 00:57:27;;;;;;;0.00;0.00;;;12.40;71.20;;;;;;5033910;28;20454;-71
2021/09/03 00:59:54;;;;;;;0.00;0.00;;;12.40;71.40;;;;;;5034092;28;20397;-75
2021/09/03 01:02:23;;;;;;;0.00;0.00;;;12.40;71.40;;;;;;5033783;28;20385;-72
2021/09/03 01:04:49;;;;;;;0.00;0.00;;;12.30;71.40;;;;;;5033788;28;20032;-72
2021/09/03 01:07:15;;;;;;;0.00;0.00;;;12.40;71.40;;;;;;5033235;28;20148;-72
2021/09/03 01:09:41;;;;;;;0.00;0.00;;;12.30;71.40;;;;;;5033498;28;20444;-72
2021/09/03 01:12:07;;;;;;;0.00;0.00;;;12.30;71.60;;;;;;5033404;28;20029;-72
2021/09/03 01:14:33;;;;;;;0.00;0.00;;;12.30;71.60;;;;;;5033252;28;20057;-71
2021/09/03 01:16:58;;;;;;;0.00;0.00;;;12.30;71.60;;;;;;5033396;28;20377;-73
2021/09/03 01:19:24;;;;;;;0.00;0.00;;;12.30;71.60;;;;;;5033414;28;20029;-72
2021/09/03 01:21:52;;;;;;;0.00;0.00;;;12.20;71.70;;;;;;5033101;28;20420;-72
2021/09/03 01:24:18;;;;;;;0.00;0.00;;;12.20;71.80;;;;;;5033640;28;20470;-71
2021/09/03 01:26:45;;;;;;;0.00;0.00;;;12.20;71.90;;;;;;5033234;28;20031;-72
2021/09/03 01:29:12;;;;;;;0.00;0.00;;;12.20;71.90;;;;;;5033018;28;20469;-72
2021/09/03 01:31:39;;;;;;;0.00;0.00;;;12.20;71.90;;;;;;5033111;28;20022;-73
2021/09/03 01:34:04;;;;;;;0.00;0.00;;;12.20;71.90;;;;;;5031454;28;20033;-72
2021/09/03 01:36:31;;;;;;;0.00;0.00;;;12.20;71.90;;;;;;5036752;28;20076;-72
2021/09/03 01:38:58;;;;;;;0.00;0.00;;;12.10;71.80;;;;;;5037041;28;20026;-72
2021/09/03 01:41:25;;;;;;;0.00;0.00;;;12.10;71.90;;;;;;5036849;28;20474;-72
2021/09/03 01:43:52;;;;;;;0.00;0.00;;;12.00;71.90;;;;;;5037027;28;20068;-72
2021/09/03 01:46:18;;;;;;;0.00;0.00;;;11.90;71.90;;;;;;5035674;28;20082;-72
2021/09/03 01:48:44;;;;;;;0.00;0.00;;;11.80;72.10;;;;;;5036692;28;20026;-72
2021/09/03 01:51:10;;;;;;;0.00;0.00;;;11.70;72.40;;;;;;5036854;28;20026;-72
2021/09/03 01:53:36;;;;;;;0.00;0.00;;;11.50;72.60;;;;;;5036858;28;20057;-71
2021/09/03 01:56:02;;;;;;;0.00;0.00;;;11.40;73.00;;;;;;5035813;28;20155;-71
2021/09/03 01:58:28;;;;;;;0.00;0.00;;;11.30;73.20;;;;;;5036819;28;20053;-73
2021/09/03 02:00:54;;;;;;;0.00;0.00;;;11.30;73.50;;;;;;5036732;28;20563;-72
2021/09/03 02:03:19;;;;;;;0.00;0.00;;;11.20;73.70;;;;;;5036929;28;20164;-72
2021/09/03 02:05:45;;;;;;;0.00;0.00;;;11.20;73.90;;;;;;5036609;28;20021;-72
2021/09/03 02:08:11;;;;;;;0.00;0.00;;;11.10;74.10;;;;;;5035354;28;20037;-73
2021/09/03 02:10:36;;;;;;;0.00;0.00;;;11.10;74.20;;;;;;5036065;28;20490;-72
2021/09/03 02:13:02;;;;;;;0.00;0.00;;;11.10;74.40;;;;;;5036713;28;20025;-74
2021/09/03 02:15:28;;;;;;;0.00;0.00;;;11.10;74.50;;;;;;5036707;28;20454;-72
2021/09/03 02:17:54;;;;;;;0.00;0.00;;;11.20;74.50;;;;;;5036140;28;20103;-73
2021/09/03 02:20:20;;;;;;;0.00;0.00;;;11.20;74.50;;;;;;5036359;28;20407;-73
2021/09/03 02:22:45;;;;;;;0.00;0.00;;;11.20;74.60;;;;;;5036352;28;20061;-72
2021/09/03 02:25:11;;;;;;;0.00;0.00;;;11.10;74.50;;;;;;5036293;28;20420;-72
2021/09/03 02:27:38;;;;;;;0.10;0.00;;;11.20;74.60;;;;;;5036183;28;20355;-72
2021/09/03 02:30:06;;;;;;;0.00;0.00;;;11.20;74.60;;;;;;5036269;28;20081;-72
2021/09/03 02:32:31;;;;;;;0.00;0.00;;;11.20;74.60;;;;;;5036050;28;20029;-71
2021/09/03 02:34:57;;;;;;;0.00;0.00;;;11.20;74.60;;;;;;5036137;28;20029;-72
2021/09/03 02:37:23;;;;;;;0.00;0.00;;;11.10;74.70;;;;;;5036089;28;20032;-72
2021/09/03 02:39:49;;;;;;;0.00;0.00;;;11.20;74.80;;;;;;5035246;28;20112;-72
2021/09/03 02:42:14;;;;;;;0.00;0.00;;;11.20;74.90;;;;;;5036156;28;20039;-72
2021/09/03 02:44:41;;;;;;;0.00;0.00;;;11.20;74.90;;;;;;5036076;28;20469;-72
2021/09/03 02:47:07;;;;;;;0.00;0.00;;;11.20;74.80;;;;;;5035788;28;20167;-72
2021/09/03 02:49:32;;;;;;;0.00;0.00;;;11.10;74.80;;;;;;5035814;28;20485;-71
2021/09/03 02:51:58;;;;;;;0.00;0.00;;;11.10;74.80;;;;;;5034259;28;20049;-72
2021/09/03 02:54:24;;;;;;;0.00;0.00;;;11.00;74.90;;;;;;5035919;28;20152;-72
2021/09/03 02:56:49;;;;;;;0.00;0.00;;;10.90;75.00;;;;;;5035674;28;20021;-72
2021/09/03 02:59:15;;;;;;;0.00;0.00;;;10.90;75.20;;;;;;5035639;28;20044;-72
2021/09/03 03:01:41;;;;;;;0.00;0.00;;;10.80;75.40;;;;;;5035566;28;20053;-73
2021/09/03 03:04:06;;;;;;;0.00;0.00;;;10.70;75.50;;;;;;5034169;28;20029;-72
2021/09/03 03:06:32;;;;;;;0.00;0.00;;;10.70;75.70;;;;;;5035433;28;20037;-72
2021/09/03 03:08:58;;;;;;;0.00;0.00;;;10.70;75.90;;;;;;5035171;28;20458;-72
2021/09/03 03:11:24;;;;;;;0.00;0.00;;;10.70;76.00;;;;;;5035341;28;20489;-71
2021/09/03 03:13:58;;;;;;;0.00;0.00;;;10.70;76.00;;;;;;5035265;28;20029;-72
2021/09/03 03:16:24;;;;;;;;;;;10.60;76.10;;;;;;5035581;28;20048;-72
2021/09/03 03:18:49;;;;;;;0.00;0.00;;;10.60;76.00;;;;;;5051193;28;19905;-71
2021/09/03 03:21:15;;;;;;;0.00;0.00;;;10.60;75.80;;;;;;5035479;28;20025;-73
2021/09/03 03:23:41;;;;;;;0.00;0.00;;;10.60;76.00;;;;;;5035163;28;20065;-72
2021/09/03 03:26:06;;;;;;;0.00;0.00;;;10.60;76.10;;;;;;5035360;28;20029;-72
2021/09/03 03:28:32;;;;;;;0.00;0.00;;;10.60;76.20;;;;;;5034797;28;20105;-72
2021/09/03 03:30:58;;;;;;;0.00;0.00;;;10.60;76.30;;;;;;5034697;28;20021;-72
2021/09/03 03:33:23;;;;;;;0.00;0.00;;;10.60;76.30;;;;;;5034869;28;20033;-72
2021/09/03 03:35:49;;;;;;;0.00;0.00;;;10.60;76.40;;;;;;5035444;28;20040;-72
2021/09/03 03:38:15;;;;;;;0.00;0.00;;;10.60;76.30;;;;;;5035135;28;20024;-72
2021/09/03 03:40:41;;;;;;;0.00;0.00;;;10.70;76.40;;;;;;5034447;28;20033;-72
2021/09/03 03:43:06;;;;;;;0.00;0.00;;;10.60;76.30;;;;;;5035316;28;20114;-74
2021/09/03 03:45:32;;;;;;;0.00;0.00;;;10.70;76.30;;;;;;5034495;28;20033;-73
2021/09/03 03:47:58;;;;;;;0.00;0.00;;;10.70;76.30;;;;;;5034438;28;20022;-73
2021/09/03 03:50:24;;;;;;;0.00;0.00;;;10.70;76.40;;;;;;5034408;28;20053;-75
2021/09/03 03:52:49;;;;;;;0.00;0.00;;;10.70;76.40;;;;;;5033278;28;20049;-73
2021/09/03 03:55:15;;;;;;;0.00;0.00;;;10.80;76.40;;;;;;5033794;28;20385;-72
2021/09/03 03:57:41;;;;;;;0.00;0.00;;;10.80;76.40;;;;;;5033472;28;20484;-72
2021/09/03 04:00:07;;;;;;;0.00;0.00;;;10.90;76.30;;;;;;5034207;28;20018;-74
2021/09/03 04:02:33;;;;;;;0.00;0.00;;;11.00;76.10;;;;;;5033148;28;20462;-72
2021/09/03 04:04:59;;;;;;;0.00;0.00;;;11.00;75.90;;;;;;5034094;28;20115;-73
2021/09/03 04:07:25;;;;;;;0.00;0.00;;;11.00;75.70;;;;;;5034291;28;20117;-73
2021/09/03 04:09:51;;;;;;;0.00;0.00;;;11.10;75.70;;;;;;5034608;28;20429;-74
2021/09/03 04:12:17;;;;;;;0.00;0.00;;;11.10;75.60;;;;;;5034384;28;20017;-73
2021/09/03 04:14:43;;;;;;;0.00;0.00;;;11.10;75.60;;;;;;5033695;28;20036;-74
2021/09/03 04:17:08;;;;;;;0.00;0.00;;;11.20;75.50;;;;;;5034195;28;20026;-73
2021/09/03 04:19:34;;;;;;;0.00;0.00;;;11.20;75.40;;;;;;5034018;28;20030;-73
2021/09/03 04:22:00;;;;;;;0.00;0.00;;;11.30;75.30;;;;;;5033982;28;20028;-73
2021/09/03 04:24:26;;;;;;;0.00;0.00;;;11.30;75.20;;;;;;5034009;28;20033;-72
2021/09/03 04:26:52;;;;;;;0.00;0.00;;;11.30;75.10;;;;;;5033960;28;20033;-72
2021/09/03 04:29:18;;;;;;;0.00;0.00;;;11.30;75.00;;;;;;5034651;28;20448;-74
2021/09/03 04:31:44;;;;;;;0.00;0.00;;;11.40;75.00;;;;;;5033884;28;20113;-74
2021/09/03 04:34:10;;;;;;;0.00;0.00;;;11.50;75.40;;;;;;5033888;28;20092;-74
2021/09/03 04:36:35;;;;;;;0.00;0.00;;;11.50;74.70;;;;;;5033673;28;20040;-73
2021/09/03 04:39:01;;;;;;;0.00;0.00;;;11.60;74.50;;;;;;5032442;28;20079;-74
2021/09/03 04:41:27;;;;;;;0.00;0.00;;;11.60;74.50;;;;;;5033585;28;20029;-72
2021/09/03 04:43:52;;;;;;;0.00;0.00;;;11.70;74.50;;;;;;5033388;28;20421;-72
2021/09/03 04:46:18;;;;;;;0.00;0.00;;;11.70;74.30;;;;;;5033181;28;20037;-73
2021/09/03 04:48:44;;;;;;;0.00;0.00;;;11.80;74.10;;;;;;5033885;28;20473;-73
2021/09/03 04:51:10;;;;;;;0.00;0.00;;;11.90;74.10;;;;;;5032888;28;20048;-75
2021/09/03 04:53:36;;;;;;;0.00;0.00;;;12.00;74.00;;;;;;5033980;28;20053;-72
2021/09/03 04:56:02;;;;;;;0.00;0.00;;;12.10;73.80;;;;;;5032347;28;20031;-73
2021/09/03 04:58:28;;;;;;;0.00;0.00;;;12.10;73.50;;;;;;5032362;28;20018;-74
2021/09/03 05:00:54;;;;;;;0.00;0.00;;;12.20;73.30;;;;;;5033337;28;20151;-73
2021/09/03 05:03:19;;;;;;;0.00;0.00;;;12.30;73.10;;;;;;5032790;28;20108;-74
2021/09/03 05:05:45;;;;;;;0.00;0.00;;;12.50;73.00;;;;;;5033442;28;20097;-73
2021/09/03 05:08:11;;;;;;;0.00;0.00;;;12.60;72.60;;;;;;5033297;28;20032;-76
2021/09/03 05:10:36;;;;;;;0.00;0.00;;;12.60;72.30;;;;;;5037906;28;20029;-73
2021/09/03 05:13:02;;;;;;;0.00;0.00;;;12.70;72.20;;;;;;5037135;28;20069;-73
2021/09/03 05:15:34;;;;;;;0.00;0.00;;;12.80;71.90;;;;;;5037465;28;20466;-74
2021/09/03 05:18:00;;;;;;;0.00;0.00;;;12.90;71.90;;;;;;5036050;28;20457;-73
2021/09/03 05:20:25;;;;;;;0.00;0.00;;;13.00;71.60;;;;;;5037273;28;20025;-73
2021/09/03 05:22:51;;;;;;;0.00;0.00;;;13.10;71.40;;;;;;5036938;28;20105;-74
2021/09/03 05:25:17;;;;;;;0.00;0.00;;;13.20;71.10;;;;;;5037156;28;20116;-74
2021/09/03 05:27:57;;;;;;;0.00;0.00;;;13.30;70.70;;;;;;5037465;28;20076;-73
2021/09/03 05:30:27;;;;;;;0.00;0.00;;;13.30;70.60;;;;;;5035388;28;20129;-73
2021/09/03 05:32:54;;;;;;;0.00;0.00;;;13.40;70.40;;;;;;5037355;28;20116;-72
2021/09/03 05:35:23;;;;;;;0.00;0.00;;;13.50;70.20;;;;;;5037073;28;20033;-73
2021/09/03 05:37:49;;;;;;;0.00;0.00;;;13.60;69.60;;;;;;5037383;28;20104;-73
2021/09/03 05:40:15;;;;;;;0.00;0.00;;;13.60;69.30;;;;;;5036873;28;20049;-74
2021/09/03 05:42:41;;;;;;;0.00;0.00;;;13.60;69.20;;;;;;5036720;28;20104;-73
2021/09/03 05:45:08;;;;;;;0.00;0.00;;;13.70;69.10;;;;;;5037053;28;20060;-73
2021/09/03 05:47:33;;;;;;;0.00;0.00;;;13.70;69.10;;;;;;5036994;28;20025;-73
2021/09/03 05:49:59;;;;;;;0.00;0.00;;;13.80;69.50;;;;;;5035620;28;20446;-73
2021/09/03 05:52:25;;;;;;;0.00;0.00;;;13.80;68.80;;;;;;5035095;28;20179;-73
2021/09/03 05:54:50;;;;;;;0.00;0.00;;;13.90;68.60;;;;;;5036541;28;20124;-72
2021/09/03 05:57:16;;;;;;;0.00;0.00;;;14.00;68.20;;;;;;5036424;28;20021;-74
2021/09/03 05:59:42;;;;;;;0.00;0.00;;;14.10;67.90;;;;;;5035497;28;20065;-72
2021/09/03 06:02:07;;;;;;;0.00;0.00;;;14.10;67.60;;;;;;5037122;28;20079;-72
2021/09/03 06:04:33;;;;;;;0.00;0.00;;;14.20;67.50;;;;;;5036695;28;20022;-73
2021/09/03 06:06:59;;;;;;;0.00;0.00;;;14.30;66.90;;;;;;5036534;28;20028;-73
2021/09/03 06:09:25;;;;;;;0.00;0.00;;;14.40;66.50;;;;;;5036510;28;20076;-73
2021/09/03 06:11:52;;;;;;;0.00;0.00;;;14.50;66.10;;;;;;5036083;28;20076;-73
2021/09/03 06:14:18;;;;;;;0.00;0.00;;;14.60;65.50;;;;;;5035001;28;20033;-73
2021/09/03 06:16:44;;;;;;;0.00;0.00;;;14.70;65.00;;;;;;5035030;28;20080;-72
2021/09/03 06:19:09;;;;;;;0.00;0.00;;;14.80;64.50;;;;;;5036105;28;20108;-72
2021/09/03 06:21:35;;;;;;;0.00;0.00;;;14.80;64.30;;;;;;5035647;28;20485;-73
2021/09/03 06:24:01;;;;;;;0.00;0.00;;;14.90;64.00;;;;;;5036360;28;20108;-73
2021/09/03 06:26:26;;;;;;;0.00;0.00;;;15.00;63.60;;;;;;5051632;28;20030;-74
2021/09/03 06:28:54;;;;;;;0.00;0.00;;;15.10;63.10;;;;;;5035939;28;20025;-73
2021/09/03 06:31:21;;;;;;;0.00;0.00;;;15.20;62.50;;;;;;5035877;28;20029;-73
2021/09/03 06:33:47;;;;;;;0.00;0.00;;;15.30;62.20;;;;;;5035758;28;20033;-72
2021/09/03 06:36:13;;;;;;;0.00;0.00;;;15.30;61.90;;;;;;5036630;28;20030;-73
2021/09/03 06:38:39;;;;;;;0.00;0.00;;;15.40;61.80;;;;;;5035725;28;20022;-73
2021/09/03 06:41:05;;;;;;;0.00;0.00;;;15.40;61.50;;;;;;5034428;28;20028;-73
2021/09/03 06:43:31;;;;;;;0.00;0.00;;;15.50;61.40;;;;;;5034221;28;20029;-73
2021/09/03 06:45:57;;;;;;;0.00;0.00;;;15.60;60.70;;;;;;5034533;28;20091;-71
2021/09/03 06:48:23;;;;;;;0.00;0.00;;;15.70;60.30;;;;;;5035165;28;20068;-73
2021/09/03 06:50:50;;;;;;;0.00;0.00;;;15.70;59.80;;;;;;5036095;28;20049;-73
2021/09/03 06:53:16;;;;;;;0.00;0.00;;;15.80;59.60;;;;;;5036045;28;20049;-72
2021/09/03 06:55:42;;;;;;;0.00;0.00;;;15.90;59.40;;;;;;5035726;28;20026;-74
2021/09/03 06:58:07;;;;;;;0.00;0.00;;;16.00;59.20;;;;;;5034723;28;20057;-74
2021/09/03 07:00:33;;;;;;;0.00;0.00;;;16.10;59.10;;;;;;5035267;28;20029;-75
2021/09/03 07:03:09;;;;;;;0.00;0.00;;;16.10;58.60;;;;;;5035441;28;20033;-74
2021/09/03 07:05:35;;;;;;;0.00;0.00;;;16.20;57.50;;;;;;5035548;28;20470;-77
2021/09/03 07:08:01;;;;;;;0.00;0.00;;;16.20;57.40;;;;;;5050937;28;20500;-73
2021/09/03 07:10:27;;;;;;;0.00;0.00;;;16.30;57.70;;;;;;5035302;28;20052;-74
2021/09/03 07:12:53;;;;;;;0.00;0.00;;;16.40;58.40;;;;;;5034985;28;20044;-73
2021/09/03 07:15:19;;;;;;;0.00;0.00;;;16.50;57.20;;;;;;5035592;28;20032;-74
2021/09/03 07:17:44;;;;;;;0.00;0.00;;;16.60;56.80;;;;;;5035715;28;20072;-74
2021/09/03 07:20:12;;;;;;;0.00;0.00;;;16.70;56.50;;;;;;5035362;28;20053;-74
2021/09/03 07:22:37;;;;;;;0.00;0.00;;;16.80;55.60;;;;;;5035276;28;20505;-73
2021/09/03 07:25:04;;;;;;;0.00;0.00;;;16.90;55.60;;;;;;5034369;28;20159;-72
2021/09/03 07:27:29;;;;;;;0.00;0.00;;;17.00;55.80;;;;;;5035092;28;20083;-75
2021/09/03 07:29:55;;;;;;;0.00;0.00;;;17.10;55.70;;;;;;5035117;28;20502;-73
2021/09/03 07:32:21;;;;;;;0.00;0.00;;;17.20;55.20;;;;;;5032509;28;20034;-74
2021/09/03 07:34:47;;;;;;;0.00;0.00;;;17.30;54.40;;;;;;5035071;28;20025;-73
2021/09/03 07:37:12;;;;;;;0.00;0.00;;;17.40;54.20;;;;;;5034839;28;20381;-74
2021/09/03 07:39:38;;;;;;;0.00;0.00;;;17.60;54.20;;;;;;5033414;28;20461;-74
2021/09/03 07:42:04;;;;;;;0.00;0.00;;;17.70;53.70;;;;;;5033266;28;20029;-75
2021/09/03 07:44:29;;;;;;;0.00;0.00;;;17.90;53.10;;;;;;5049522;28;20040;-74
2021/09/03 07:46:55;;;;;;;0.00;0.00;;;17.90;53.10;;;;;;5033192;28;20045;-73
2021/09/03 07:49:21;;;;;;;0.00;0.00;;;18.10;52.80;;;;;;5034572;28;20029;-73
2021/09/03 07:51:46;;;;;;;0.00;0.00;;;18.20;52.40;;;;;;5034827;28;20049;-74
2021/09/03 07:54:12;;;;;;;0.00;0.00;;;18.40;52.00;;;;;;5034628;28;20112;-72
2021/09/03 07:56:38;;;;;;;0.00;0.00;;;18.40;51.50;;;;;;5034586;28;20053;-72
2021/09/03 07:59:04;;;;;;;0.00;0.00;;;18.40;51.20;;;;;;5033658;28;20032;-73
2021/09/03 08:01:30;;;;;;;0.00;0.00;;;18.50;50.90;;;;;;5033387;28;20366;-74
2021/09/03 08:03:55;;;;;;;0.00;0.00;;;18.60;50.80;;;;;;5034129;28;20432;-73
2021/09/03 08:06:21;;;;;;;0.00;0.00;;;18.70;50.80;;;;;;5034209;28;20025;-73
2021/09/03 08:08:47;;;;;;;0.00;0.00;;;18.90;50.90;;;;;;5034602;28;20362;-73
2021/09/03 08:11:12;;;;;;;0.00;0.00;;;19.10;50.30;;;;;;5034030;28;20417;-74
2021/09/03 08:13:38;;;;;;;0.00;0.00;;;19.10;49.70;;;;;;5034288;28;20063;-72
2021/09/03 08:16:04;;;;;;;0.10;0.10;;;19.10;49.50;;;;;;5033006;28;20491;-73
2021/09/03 08:18:30;;;;;;;0.00;0.00;;;19.00;49.60;;;;;;5033865;28;20025;-73
2021/09/03 08:20:55;;;;;;;0.00;0.00;;;19.00;49.60;;;;;;5034576;28;20410;-72
2021/09/03 08:23:24;;;;;;;0.00;0.00;;;19.20;49.60;;;;;;5032900;28;20033;-75
2021/09/03 08:25:50;;;;;;;0.00;0.00;;;19.40;49.40;;;;;;5034560;28;20056;-73
2021/09/03 08:28:15;;;;;;;0.30;0.00;;;19.60;48.80;;;;;;5033859;28;20073;-73
2021/09/03 08:30:41;;;;;;;0.00;0.00;;;19.80;48.90;;;;;;5032727;28;20029;-75
2021/09/03 08:33:07;;;;;;;0.00;0.00;;;20.20;48.40;;;;;;5034250;28;20036;-73
2021/09/03 08:35:32;;;;;;;0.00;0.00;;;20.70;47.90;;;;;;5033550;28;20026;-74
2021/09/03 08:37:58;;;;;;;0.00;0.00;;;21.00;47.10;;;;;;5033844;28;20061;-73
2021/09/03 08:40:24;;;;;;;0.00;0.00;;;21.20;46.30;;;;;;5034098;28;20553;-73
2021/09/03 08:42:50;;;;;;;0.00;0.00;;;21.30;45.80;;;;;;5033871;28;20061;-73
2021/09/03 08:45:16;;;;;;;0.00;0.00;;;21.40;45.80;;;;;;5034015;28;20082;-74
2021/09/03 08:47:43;;;;;;;0.00;0.00;;;21.50;45.40;;;;;;5034127;28;20033;-74
2021/09/03 08:50:11;;;;;;;0.00;0.00;;;21.70;45.00;;;;;;5034017;28;20026;-74
2021/09/03 08:52:42;;;;;;;0.00;0.00;;;21.70;44.80;;;;;;5033724;28;20124;-73
2021/09/03 08:55:10;;;;;;;0.00;0.00;;;21.40;44.70;;;;;;5032151;28;20057;-73
2021/09/03 08:57:37;;;;;;;0.00;0.00;;;21.50;45.00;;;;;;5033412;28;20120;-75
2021/09/03 09:00:14;;;;;;;0.00;0.00;;;21.70;45.00;;;;;;5033416;28;20080;-73
2021/09/03 09:03:03;;;;;;;0.00;0.00;;;22.10;44.30;;;;;;5032335;28;20381;-76
2021/09/03 09:05:43;;;;;;;0.00;0.00;;;22.00;43.80;;;;;;5033113;28;20030;-73
2021/09/03 09:08:10;;;;;;;0.00;0.00;;;22.00;44.30;;;;;;5033133;28;20030;-73
2021/09/03 09:10:43;;;;;;;0.00;0.00;;;22.30;44.00;;;;;;5033328;28;20025;-73
2021/09/03 09:13:17;;;;;;;0.00;0.00;;;22.50;43.20;;;;;;5033146;28;20420;-72
2021/09/03 09:15:55;;;;;;;0.00;0.00;;;22.70;42.70;;;;;;5033425;28;20033;-73
2021/09/03 09:18:43;;;;;;;0.00;0.00;;;23.10;43.00;;;;;;5033162;28;20513;-72
2021/09/03 09:21:12;;;;;;;0.00;0.00;;;23.80;42.40;;;;;;5033224;28;20448;-73
2021/09/03 09:23:43;;;;;;;0.00;0.00;;;24.00;41.70;;;;;;5033117;28;20025;-73
2021/09/03 09:26:09;;;;;;;0.00;0.00;;;24.30;41.20;;;;;;5033284;28;20052;-75
2021/09/03 09:28:35;;;;;;;0.00;0.00;;;24.70;40.80;;;;;;5031962;28;20026;-74
2021/09/03 09:31:01;;;;;;;0.00;0.00;;;24.90;40.20;;;;;;5033353;28;20029;-73
2021/09/03 09:33:27;;;;;;;0.00;0.00;;;25.10;39.70;;;;;;5033289;28;20124;-73
2021/09/03 09:35:54;;;;;;;0.00;0.00;;;25.20;39.60;;;;;;5033268;28;20117;-72
2021/09/03 09:38:23;;;;;;;0.00;0.00;;;25.50;39.30;;;;;;5031378;28;20052;-74
2021/09/03 09:40:52;;;;;;;0.10;0.00;;;25.40;38.90;;;;;;5032654;28;20025;-71
2021/09/03 09:43:28;;;;;;;0.00;0.00;;;25.50;38.90;;;;;;5031993;28;20030;-72
2021/09/03 09:46:15;;;;;;;0.00;0.00;;;25.30;39.10;;;;;;5032135;28;20027;-74
2021/09/03 09:48:50;;;;;;;0.00;0.00;;;25.50;38.60;;;;;;5032789;28;20029;-74
2021/09/03 09:51:23;;;;;;;0.00;0.00;;;25.80;38.20;;;;;;5032698;28;20464;-73
2021/09/03 09:54:01;;;;;;;0.00;0.00;;;26.00;37.40;;;;;;5033313;28;20033;-75
2021/09/03 09:56:29;;;;;;;0.00;0.00;;;26.40;37.40;;;;;;5034061;28;20061;-74
2021/09/03 09:58:57;;;;;;;0.00;0.00;;;26.10;37.30;;;;;;5035891;28;20033;-74
2021/09/03 10:01:23;;;;;;;0.00;0.00;;;25.30;37.60;;;;;;5035544;28;20029;-74
2021/09/03 10:03:51;;;;;;;0.00;0.00;;;25.20;38.20;;;;;;5036513;28;20033;-78
2021/09/03 10:06:18;;;;;;;0.00;0.00;;;25.30;38.20;;;;;;5036933;28;20036;-74
2021/09/03 10:08:45;;;;;;;0.00;0.00;;;25.50;38.40;;;;;;5036608;28;20025;-74
2021/09/03 10:11:15;;;;;;;0.00;0.00;;;25.60;38.40;;;;;;5036914;28;20021;-74
2021/09/03 10:13:42;;;;;;;0.00;0.00;;;26.00;38.20;;;;;;5035336;28;20029;-75
2021/09/03 10:16:08;;;;;;;0.00;0.00;;;25.50;38.10;;;;;;5036341;28;20037;-75
2021/09/03 10:18:34;;;;;;;0.00;0.00;;;25.70;38.40;;;;;;5035412;28;20123;-74
2021/09/03 10:21:02;;;;;;;0.00;0.00;;;25.60;38.20;;;;;;5036194;28;20036;-74
2021/09/03 10:23:56;;;;;;;0.00;0.00;;;25.30;38.00;;;;;;5036592;28;20025;-75
2021/09/03 10:26:28;;;;;;;0.55;0.00;;;24.60;38.60;;;;;;5036043;28;20389;-75
2021/09/03 10:29:16;;;;;;;0.00;0.00;;;24.60;39.10;;;;;;5051510;28;20025;-74
2021/09/03 10:32:07;;;;;;;0.00;0.00;;;25.70;39.20;;;;;;5035882;28;20095;-74
2021/09/03 10:34:44;;;;;;;0.00;0.00;;;26.80;38.40;;;;;;5036116;28;20046;-75
2021/09/03 10:37:19;;;;;;;0.00;0.00;;;27.10;37.40;;;;;;5036354;28;20022;-75
2021/09/03 10:39:47;;;;;;;0.00;0.00;;;26.90;36.40;;;;;;5036597;28;20032;-73
2021/09/03 10:42:35;;;;;;;0.00;0.00;;;26.70;36.90;;;;;;5035681;28;20025;-75
2021/09/03 10:45:15;;;;;;;0.00;0.00;;;27.20;36.30;;;;;;5035844;28;20029;-74
2021/09/03 10:47:45;;;;;;;0.00;0.00;;;27.20;36.00;;;;;;5034485;28;20037;-74
2021/09/03 10:50:22;;;;;;;0.00;0.00;;;26.90;35.50;;;;;;5034679;28;20110;-74
2021/09/03 10:53:05;;;;;;;0.00;0.00;;;26.80;36.10;;;;;;5035805;28;20045;-74
2021/09/03 10:55:52;;;;;;;0.00;0.00;;;26.70;36.10;;;;;;5035799;28;20032;-75
2021/09/03 10:58:30;;;;;;;0.00;0.00;;;26.50;36.10;;;;;;5035486;28;20032;-74
2021/09/03 11:01:14;;;;;;;0.00;0.00;;;26.40;36.40;;;;;;5035800;28;20056;-74
2021/09/03 11:03:58;;;;;;;0.00;0.00;;;26.80;36.40;;;;;;5035671;28;20063;-74
2021/09/03 11:06:27;;;;;;;0.00;0.00;;;27.10;35.70;;;;;;5035036;28;20021;-74
2021/09/03 11:09:25;;;;;;;0.00;0.00;;;26.70;35.90;;;;;;5035536;28;20017;-75
2021/09/03 11:11:53;;;;;;;0.00;0.00;;;26.60;36.00;;;;;;5035054;28;20046;-75
2021/09/03 11:14:31;;;;;;;0.00;0.00;;;26.90;35.80;;;;;;5035691;28;20128;-75
2021/09/03 11:17:06;;;;;;;0.00;0.00;;;26.60;35.50;;;;;;5034839;28;20033;-75
2021/09/03 11:19:41;;;;;;;0.00;0.00;;;26.50;35.90;;;;;;5034065;28;20040;-75
2021/09/03 11:22:12;;;;;;;0.00;0.00;;;26.80;35.60;;;;;;5035309;28;20030;-75
2021/09/03 11:24:43;;;;;;;0.10;0.00;;;26.30;35.50;;;;;;5034910;28;20029;-74
2021/09/03 11:27:15;;;;;;;0.00;0.00;;;25.70;35.90;;;;;;5034484;28;20029;-77
2021/09/03 11:29:53;;;;;;;0.00;0.00;;;25.00;36.70;;;;;;5035382;28;20053;-74
2021/09/03 11:32:21;;;;;;;0.00;0.00;;;25.30;37.20;;;;;;5034963;28;20021;-75
2021/09/03 11:34:50;;;;;;;0.00;0.00;;;25.20;36.90;;;;;;5034744;28;20474;-76
2021/09/03 11:37:19;;;;;;;0.00;0.00;;;26.00;36.90;;;;;;5033689;28;20075;-75
2021/09/03 11:39:45;;;;;;;0.00;0.00;;;27.10;36.20;;;;;;5034925;28;20021;-75
2021/09/03 11:42:23;;;;;;;0.00;0.00;;;27.20;35.60;;;;;;5034777;28;20036;-74
2021/09/03 11:44:57;;;;;;;0.00;0.00;;;27.50;35.50;;;;;;5034736;28;20025;-74
2021/09/03 11:47:35;;;;;;;0.00;0.00;;;28.40;35.50;;;;;;5034425;28;20028;-75
2021/09/03 11:50:05;;;;;;;0.00;0.00;;;29.30;34.50;;;;;;5034708;28;20354;-76
2021/09/03 11:52:32;;;;;;;0.00;0.00;;;29.80;33.90;;;;;;5034230;28;20076;-77
2021/09/03 11:54:59;;;;;;;0.00;0.00;;;29.20;33.30;;;;;;5033944;28;20116;-76
2021/09/03 11:57:25;;;;;;;0.00;0.00;;;28.80;33.90;;;;;;5034440;28;20075;-75
2021/09/03 11:59:53;;;;;;;0.00;0.00;;;29.40;34.20;;;;;;5034180;28;20100;-75
2021/09/03 12:02:19;;;;;;;0.00;0.00;;;30.20;33.70;;;;;;5034296;28;20040;-75
2021/09/03 12:04:45;;;;;;;0.00;0.00;;;30.20;33.10;;;;;;5034249;28;20139;-74
2021/09/03 12:07:22;;;;;;;0.00;0.00;;;29.50;33.10;;;;;;5034448;28;20491;-74
2021/09/03 12:09:52;;;;;;;0.00;0.00;;;29.20;33.40;;;;;;5034874;28;20021;-78
2021/09/03 12:12:23;;;;;;;0.00;0.00;;;28.90;33.30;;;;;;5035251;28;20017;-74
2021/09/03 12:14:58;;;;;;;0.00;0.00;;;29.00;33.90;;;;;;5035058;28;20030;-75
2021/09/03 12:17:39;;;;;;;0.00;0.00;;;29.70;33.70;;;;;;5033648;28;20184;-78
2021/09/03 12:20:17;;;;;;;0.00;0.00;;;30.60;33.20;;;;;;5033940;28;20025;-75
2021/09/03 12:22:52;;;;;;;0.00;0.00;;;30.40;32.40;;;;;;5034228;28;20026;-77
2021/09/03 12:25:28;;;;;;;0.00;0.00;;;29.40;32.20;;;;;;5034118;28;20572;-75
2021/09/03 12:28:21;;;;;;;0.00;0.00;;;28.00;32.80;;;;;;5034588;28;20067;-75
2021/09/03 12:30:51;;;;;;;0.00;0.00;;;26.90;33.80;;;;;;5034048;28;20462;-75
2021/09/03 12:33:29;;;;;;;0.00;0.00;;;26.00;34.80;;;;;;5033999;28;20358;-74
2021/09/03 12:36:05;;;;;;;0.00;0.00;;;25.40;35.80;;;;;;5033943;28;20033;-75
2021/09/03 12:38:42;;;;;;;0.00;0.00;;;25.20;36.60;;;;;;5034209;28;20028;-76
2021/09/03 12:41:15;;;;;;;0.00;0.00;;;25.90;36.70;;;;;;5034097;28;20033;-75
2021/09/03 12:43:41;;;;;;;0.00;0.00;;;26.50;35.90;;;;;;5033905;28;20056;-76
2021/09/03 12:46:10;;;;;;;0.00;0.00;;;26.30;35.70;;;;;;5034327;28;20032;-75
2021/09/03 12:48:37;;;;;;;0.00;0.00;;;26.30;36.30;;;;;;5033469;28;20385;-76
2021/09/03 12:51:03;;;;;;;0.00;0.00;;;26.70;36.00;;;;;;5033646;28;20034;-75
2021/09/03 12:53:29;;;;;;;0.00;0.00;;;26.40;35.60;;;;;;5034038;28;20056;-75